createdAt,value
2023-10-15T00:01:37.823Z,98364.47
2023-10-15T00:04:04.970Z,98366.22
2023-10-15T00:06:31.538Z,98369.06
2023-10-15T00:09:00.753Z,98363.88
2023-10-15T00:11:27.212Z,98370.72
2023-10-15T00:13:53.733Z,98375.16
2023-10-15T00:16:22.185Z,98377.75
2023-10-15T00:18:49.059Z,98380.44
2023-10-15T00:21:16.064Z,98377.91
2023-10-15T00:23:44.739Z,98383.59
2023-10-15T00:26:15.530Z,98377.81
2023-10-15T00:28:42.787Z,98371.81
2023-10-15T00:31:10.952Z,98380.47
2023-10-15T00:33:40.839Z,98376.41
2023-10-15T00:36:07.660Z,98379.00
2023-10-15T00:38:38.079Z,98373.00
2023-10-15T00:41:10.662Z,98379.31
2023-10-15T00:43:37.465Z,98385.28
2023-10-15T00:46:07.819Z,98388.81
2023-10-15T00:48:37.365Z,98382.03
2023-10-15T00:51:10.695Z,98389.72
2023-10-15T00:53:48.899Z,98385.53
2023-10-15T00:56:17.776Z,98386.47
2023-10-15T00:58:44.281Z,98384.09
2023-10-15T01:01:21.956Z,98378.25
2023-10-15T01:03:55.842Z,98375.06
2023-10-15T01:06:35.488Z,98366.66
2023-10-15T01:09:12.175Z,98372.00
2023-10-15T01:11:46.240Z,98364.72
2023-10-15T01:14:12.999Z,98361.44
2023-10-15T01:16:41.196Z,98360.75
2023-10-15T01:19:11.572Z,98367.81
2023-10-15T01:21:51.072Z,98357.56
2023-10-15T01:24:19.571Z,98362.84
2023-10-15T01:27:06.235Z,98360.38
2023-10-15T01:29:35.469Z,98366.44
2023-10-15T01:32:11.851Z,98357.28
2023-10-15T01:34:39.343Z,98356.38
2023-10-15T01:37:14.485Z,98356.44
2023-10-15T01:39:41.082Z,98361.47
2023-10-15T01:42:08.470Z,98358.03
2023-10-15T01:44:40.699Z,98363.16
2023-10-15T01:47:07.241Z,98357.28
2023-10-15T01:49:34.928Z,98362.56
2023-10-15T01:52:11.429Z,98360.91
2023-10-15T01:54:38.237Z,98354.88
2023-10-15T01:57:07.413Z,98360.88
2023-10-15T01:59:46.810Z,98354.97
2023-10-15T02:02:19.317Z,98356.78
2023-10-15T02:04:46.456Z,98361.88
2023-10-15T02:07:21.147Z,98353.31
2023-10-15T02:09:48.102Z,98357.69
2023-10-15T02:12:15.781Z,98355.19
2023-10-15T02:14:43.274Z,98357.75
2023-10-15T02:17:15.876Z,98351.00
2023-10-15T02:19:42.750Z,98357.84
2023-10-15T02:22:15.778Z,98359.53
2023-10-15T02:24:47.814Z,98362.19
2023-10-15T02:27:26.099Z,98368.16
2023-10-15T02:29:53.026Z,98359.69
2023-10-15T02:32:30.019Z,98363.16
2023-10-15T02:34:59.181Z,98368.38
2023-10-15T02:37:29.908Z,98365.00
2023-10-15T02:40:00.557Z,98359.97
2023-10-15T02:42:36.991Z,98363.31
2023-10-15T02:45:07.858Z,98356.50
2023-10-15T02:47:49.287Z,98362.44
2023-10-15T02:50:27.423Z,98361.56
2023-10-15T02:52:56.217Z,98360.72
2023-10-15T02:55:29.448Z,98362.38
2023-10-15T02:58:02.249Z,98364.09
2023-10-15T03:00:29.327Z,98368.31
2023-10-15T03:02:57.525Z,98370.88
2023-10-15T03:05:31.721Z,98375.06
2023-10-15T03:08:01.425Z,98377.59
2023-10-15T03:10:56.892Z,98382.69
2023-10-15T03:13:23.522Z,98373.31
2023-10-15T03:15:50.242Z,98377.63
2023-10-15T03:18:25.658Z,98377.69
2023-10-15T03:21:11.395Z,98377.75
2023-10-15T03:23:40.520Z,98378.72
2023-10-15T03:26:07.214Z,98377.91
2023-10-15T03:28:36.094Z,98371.13
2023-10-15T03:31:02.766Z,98379.66
2023-10-15T03:33:31.561Z,98382.34
2023-10-15T03:35:58.327Z,98383.22
2023-10-15T03:38:25.250Z,98385.91
2023-10-15T03:40:51.849Z,98379.19
2023-10-15T03:43:21.765Z,98378.38
2023-10-15T03:45:52.030Z,98377.53
2023-10-15T03:48:23.487Z,98375.91
2023-10-15T03:50:55.965Z,98377.66
2023-10-15T03:53:29.073Z,98375.94
2023-10-15T03:55:59.868Z,98373.38
2023-10-15T03:58:26.985Z,98374.22
2023-10-15T04:01:12.920Z,98385.41
2023-10-15T04:03:43.787Z,98384.59
2023-10-15T04:06:11.724Z,98385.47
2023-10-15T04:08:41.121Z,98385.53
2023-10-15T04:11:08.184Z,98388.06
2023-10-15T04:13:36.276Z,98392.25
2023-10-15T04:16:02.842Z,98387.19
2023-10-15T04:18:31.032Z,98389.75
2023-10-15T04:20:57.738Z,98384.66
2023-10-15T04:23:33.057Z,98380.41
2023-10-15T04:26:02.570Z,98385.53
2023-10-15T04:28:29.738Z,98375.31
2023-10-15T04:30:57.414Z,98378.72
2023-10-15T04:33:27.685Z,98385.56
2023-10-15T04:35:57.483Z,98386.44
2023-10-15T04:38:29.237Z,98372.81
2023-10-15T04:40:59.365Z,98375.34
2023-10-15T04:43:26.816Z,98374.47
2023-10-15T04:45:56.875Z,98373.66
2023-10-15T04:48:34.357Z,98373.66
2023-10-15T04:51:05.889Z,98371.94
2023-10-15T04:53:32.931Z,98377.03
2023-10-15T04:56:02.058Z,98382.16
2023-10-15T04:58:29.017Z,98379.59
2023-10-15T05:00:55.790Z,98377.06
2023-10-15T05:03:22.378Z,98379.59
2023-10-15T05:05:48.927Z,98378.72
2023-10-15T05:08:18.372Z,98386.38
2023-10-15T05:10:47.316Z,98388.06
2023-10-15T05:13:14.570Z,98383.78
2023-10-15T05:15:43.945Z,98375.25
2023-10-15T05:18:10.854Z,98371.78
2023-10-15T05:20:37.449Z,98376.91
2023-10-15T05:23:05.199Z,98379.44
2023-10-15T05:25:31.851Z,98387.94
2023-10-15T05:27:58.533Z,98383.63
2023-10-15T05:30:25.009Z,98387.91
2023-10-15T05:32:51.612Z,98382.75
2023-10-15T05:35:19.093Z,98391.28
2023-10-15T05:37:46.961Z,98389.50
2023-10-15T05:40:17.411Z,98386.06
2023-10-15T05:42:45.015Z,98384.31
2023-10-15T05:45:11.524Z,98391.91
2023-10-15T05:47:38.658Z,98391.00
2023-10-15T05:50:06.014Z,98390.09
2023-10-15T05:52:33.256Z,98389.25
2023-10-15T05:55:01.460Z,98390.09
2023-10-15T05:57:29.500Z,98395.22
2023-10-15T05:59:56.020Z,98400.34
2023-10-15T06:02:22.530Z,98403.72
2023-10-15T06:04:49.373Z,98400.28
2023-10-15T06:07:16.684Z,98404.53
2023-10-15T06:09:46.282Z,98408.72
2023-10-15T06:12:14.430Z,98412.97
2023-10-15T06:14:41.185Z,98418.00
2023-10-15T06:17:07.834Z,98430.78
2023-10-15T06:19:35.524Z,98432.38
2023-10-15T06:22:02.455Z,98430.59
2023-10-15T06:24:28.982Z,98426.31
2023-10-15T06:26:55.462Z,98432.19
2023-10-15T06:29:21.922Z,98434.66
2023-10-15T06:31:48.447Z,98437.06
2023-10-15T06:34:17.373Z,98442.06
2023-10-15T06:36:43.967Z,98444.56
2023-10-15T06:39:10.516Z,98447.06
2023-10-15T06:41:37.736Z,98445.25
2023-10-15T06:44:04.782Z,98451.25
2023-10-15T06:46:32.688Z,98457.16
2023-10-15T06:48:59.652Z,98454.44
2023-10-15T06:51:27.463Z,98451.84
2023-10-15T06:53:54.071Z,98454.31
2023-10-15T06:56:20.548Z,98453.38
2023-10-15T06:58:47.134Z,98459.31
2023-10-15T07:01:14.372Z,98454.13
2023-10-15T07:03:41.285Z,98460.78
2023-10-15T07:06:07.940Z,98458.91
2023-10-15T07:08:34.560Z,98457.94
2023-10-15T07:11:01.125Z,98460.22
2023-10-15T07:13:28.189Z,98458.13
2023-10-15T07:15:55.610Z,98458.59
2023-10-15T07:18:22.224Z,98463.88
2023-10-15T07:20:48.796Z,98469.63
2023-10-15T07:23:15.669Z,98463.78
2023-10-15T07:25:44.501Z,98457.22
2023-10-15T07:28:11.478Z,98459.13
2023-10-15T07:30:38.179Z,98465.41
2023-10-15T07:33:05.108Z,98463.53
2023-10-15T07:35:32.082Z,98466.53
2023-10-15T07:37:59.237Z,98464.19
2023-10-15T07:40:29.064Z,98467.63
2023-10-15T07:43:01.337Z,98468.00
2023-10-15T07:45:30.385Z,98461.38
2023-10-15T07:48:00.926Z,98456.19
2023-10-15T07:50:29.090Z,98452.66
2023-10-15T07:52:56.599Z,98460.47
2023-10-15T07:55:27.521Z,98451.13
2023-10-15T07:57:54.488Z,98459.41
2023-10-15T08:00:24.595Z,98452.09
2023-10-15T08:02:58.577Z,98456.66
2023-10-15T08:05:26.388Z,98446.81
2023-10-15T08:07:54.605Z,98453.56
2023-10-15T08:10:25.801Z,98454.97
2023-10-15T08:12:53.563Z,98449.56
2023-10-15T08:15:20.659Z,98449.00
2023-10-15T08:17:50.070Z,98450.28
2023-10-15T08:20:17.008Z,98452.25
2023-10-15T08:22:45.458Z,98451.69
2023-10-15T08:25:15.658Z,98449.44
2023-10-15T08:27:45.533Z,98453.69
2023-10-15T08:30:13.847Z,98447.19
2023-10-15T08:32:47.934Z,98444.28
2023-10-15T08:35:15.656Z,98448.19
2023-10-15T08:37:46.809Z,98447.63
2023-10-15T08:40:18.310Z,98445.97
2023-10-15T08:42:51.751Z,98444.50
2023-10-15T08:45:23.274Z,98442.88
2023-10-15T08:47:51.439Z,98447.34
2023-10-15T08:50:21.573Z,98452.97
2023-10-15T08:52:49.523Z,98448.13
2023-10-15T08:55:18.346Z,98449.00
2023-10-15T08:57:45.701Z,98453.03
2023-10-15T09:00:31.700Z,98448.78
2023-10-15T09:03:04.367Z,98452.75
2023-10-15T09:05:31.975Z,98444.56
2023-10-15T09:08:08.454Z,98443.19
2023-10-15T09:10:43.716Z,98443.66
2023-10-15T09:13:16.419Z,98443.66
2023-10-15T09:15:44.721Z,98441.22
2023-10-15T09:18:17.760Z,98440.63
2023-10-15T09:20:47.053Z,98436.53
2023-10-15T09:23:13.778Z,98440.16
2023-10-15T09:25:42.440Z,98438.63
2023-10-15T09:28:09.444Z,98441.69
2023-10-15T09:30:35.985Z,98439.66
2023-10-15T09:33:02.481Z,98444.44
2023-10-15T09:35:30.547Z,98437.97
2023-10-15T09:37:58.283Z,98435.66
2023-10-15T09:40:25.724Z,98441.69
2023-10-15T09:42:55.267Z,98439.34
2023-10-15T09:45:25.559Z,98435.66
2023-10-15T09:47:59.253Z,98438.91
2023-10-15T09:50:28.811Z,98446.94
2023-10-15T09:52:58.162Z,98440.22
2023-10-15T09:55:25.555Z,98431.69
2023-10-15T09:57:56.425Z,98439.50
2023-10-15T10:00:43.158Z,98437.13
2023-10-15T10:03:49.035Z,98432.63
2023-10-15T10:06:54.553Z,98430.28
2023-10-15T10:09:37.827Z,98429.66
2023-10-15T10:12:38.418Z,98429.84
2023-10-15T10:15:50.729Z,98420.03
2023-10-15T10:18:18.323Z,98423.16
2023-10-15T10:20:48.334Z,98428.34
2023-10-15T10:23:15.748Z,98427.56
2023-10-15T10:25:49.606Z,98420.06
2023-10-15T10:28:19.535Z,98413.53
2023-10-15T10:30:59.816Z,98414.41
2023-10-15T10:33:50.492Z,98418.59
2023-10-15T10:36:28.472Z,98415.88
2023-10-15T10:38:59.242Z,98411.66
2023-10-15T10:41:37.248Z,98411.88
2023-10-15T10:44:22.771Z,98410.34
2023-10-15T10:46:57.707Z,98415.13
2023-10-15T10:49:42.056Z,98399.50
2023-10-15T10:52:15.714Z,98402.28
2023-10-15T10:54:43.679Z,98402.13
2023-10-15T10:57:11.046Z,98407.09
2023-10-15T10:59:39.414Z,98400.25
2023-10-15T11:02:07.055Z,98407.31
2023-10-15T11:04:34.211Z,98398.28
2023-10-15T11:07:01.651Z,98394.59
2023-10-15T11:09:29.822Z,98393.25
2023-10-15T11:11:57.287Z,98397.56
2023-10-15T11:14:26.243Z,98391.78
2023-10-15T11:16:53.689Z,98412.19
2023-10-15T11:19:33.586Z,98408.28
2023-10-15T11:22:00.169Z,98406.19
2023-10-15T11:24:29.764Z,98400.72
2023-10-15T11:26:56.751Z,98392.66
2023-10-15T11:29:24.882Z,98397.31
2023-10-15T11:31:57.064Z,98396.66
2023-10-15T11:34:25.856Z,98398.47
2023-10-15T11:36:57.142Z,98394.97
2023-10-15T11:39:38.294Z,98400.94
2023-10-15T11:42:07.484Z,98391.31
2023-10-15T11:44:38.024Z,98401.31
2023-10-15T11:47:13.083Z,98398.16
2023-10-15T11:49:43.685Z,98394.63
2023-10-15T11:52:16.404Z,98393.09
2023-10-15T11:54:51.132Z,98397.78
2023-10-15T11:57:22.434Z,98399.53
2023-10-15T11:59:51.141Z,98395.72
2023-10-15T12:02:19.918Z,98388.13
2023-10-15T12:04:52.777Z,98384.50
2023-10-15T12:07:22.474Z,98385.69
2023-10-15T12:09:49.696Z,98383.47
2023-10-15T12:12:16.612Z,98382.63
2023-10-15T12:14:43.105Z,98370.16
2023-10-15T12:17:09.712Z,98381.50
2023-10-15T12:19:36.211Z,98384.44
2023-10-15T12:22:04.470Z,98394.38
2023-10-15T12:24:30.987Z,98398.44
2023-10-15T12:26:57.479Z,98401.13
2023-10-15T12:31:58.073Z,98402.31
2023-10-15T12:34:25.704Z,98404.97
2023-10-15T12:36:54.023Z,98404.47
2023-10-15T12:39:28.279Z,98405.72
2023-10-15T12:41:55.511Z,98408.09
2023-10-15T12:44:23.767Z,98400.81
2023-10-15T12:46:52.140Z,98401.69
2023-10-15T12:49:20.354Z,98400.22
2023-10-15T12:51:47.180Z,98398.56
2023-10-15T12:54:14.635Z,98409.25
2023-10-15T12:56:41.435Z,98409.47
2023-10-15T12:59:08.340Z,98409.91
2023-10-15T13:01:35.338Z,98416.78
2023-10-15T13:04:01.929Z,98409.66
2023-10-15T13:06:28.471Z,98414.50
2023-10-15T13:08:57.033Z,98419.16
2023-10-15T13:11:24.052Z,98422.09
2023-10-15T13:13:50.670Z,98413.94
2023-10-15T13:16:19.383Z,98417.88
2023-10-15T13:18:46.194Z,98416.63
2023-10-15T13:21:14.128Z,98422.06
2023-10-15T13:23:40.590Z,98415.44
2023-10-15T13:26:07.208Z,98435.78
2023-10-15T13:28:33.698Z,98432.94
2023-10-15T13:31:00.405Z,98435.16
2023-10-15T13:33:27.085Z,98434.81
2023-10-15T13:35:55.760Z,98431.91
2023-10-15T13:38:22.797Z,98436.97
2023-10-15T13:40:49.607Z,98448.31
2023-10-15T13:43:16.356Z,98454.03
2023-10-15T13:45:43.378Z,98459.34
2023-10-15T13:48:11.712Z,98476.88
2023-10-15T13:50:38.316Z,98473.75
2023-10-15T13:53:05.085Z,98480.09
2023-10-15T13:55:31.822Z,98480.44
2023-10-15T13:57:59.585Z,98483.34
2023-10-15T14:00:28.913Z,98494.84
2023-10-15T14:02:57.658Z,98496.84
2023-10-15T14:05:26.888Z,98490.44
2023-10-15T14:07:55.484Z,98499.78
2023-10-15T14:10:22.431Z,98494.72
2023-10-15T14:12:51.787Z,98495.59
2023-10-15T14:15:21.510Z,98501.81
2023-10-15T14:17:48.166Z,98496.66
2023-10-15T14:20:18.484Z,98505.38
2023-10-15T14:22:46.721Z,98510.53
2023-10-15T14:25:13.951Z,98497.28
2023-10-15T14:27:41.507Z,98506.97
2023-10-15T14:30:11.480Z,98501.66
2023-10-15T14:32:38.654Z,98505.91
2023-10-15T14:35:07.369Z,98507.13
2023-10-15T14:37:35.288Z,98505.03
2023-10-15T14:40:01.940Z,98498.44
2023-10-15T14:42:28.472Z,98505.94
2023-10-15T14:44:55.265Z,98511.06
2023-10-15T14:47:22.067Z,98517.41
2023-10-15T14:49:48.738Z,98511.69
2023-10-15T14:52:15.223Z,98510.78
2023-10-15T14:54:41.789Z,98520.81
2023-10-15T14:57:14.114Z,98526.72
2023-10-15T14:59:40.812Z,98529.44
2023-10-15T15:02:10.107Z,98529.38
2023-10-15T15:04:39.635Z,98519.06
2023-10-15T15:07:06.107Z,98520.69
2023-10-15T15:09:33.380Z,98522.22
2023-10-15T15:11:59.869Z,98535.13
2023-10-15T15:14:26.559Z,98532.69
2023-10-15T15:16:53.374Z,98540.94
2023-10-15T15:19:19.934Z,98539.00
2023-10-15T15:21:46.469Z,98548.44
2023-10-15T15:24:16.929Z,98548.34
2023-10-15T15:26:45.077Z,98554.88
2023-10-15T15:29:14.536Z,98558.91
2023-10-15T15:31:44.612Z,98560.00
2023-10-15T15:34:14.060Z,98559.16
2023-10-15T15:36:40.543Z,98558.50
2023-10-15T15:39:10.593Z,98561.34
2023-10-15T15:41:37.908Z,98562.25
2023-10-15T15:44:06.194Z,98566.78
2023-10-15T15:46:35.105Z,98565.97
2023-10-15T15:49:01.926Z,98569.81
2023-10-15T15:51:28.396Z,98574.38
2023-10-15T15:53:54.852Z,98582.28
2023-10-15T15:56:22.525Z,98579.56
2023-10-15T15:58:49.093Z,98585.53
2023-10-15T16:01:33.142Z,98590.13
2023-10-15T16:04:06.572Z,98597.63
2023-10-15T16:06:33.209Z,98597.75
2023-10-15T16:08:59.761Z,98596.31
2023-10-15T16:11:26.247Z,98595.41
2023-10-15T16:13:53.808Z,98594.44
2023-10-15T16:16:21.065Z,98605.03
2023-10-15T16:18:47.563Z,98602.94
2023-10-15T16:21:14.869Z,98609.78
2023-10-15T16:23:41.309Z,98610.09
2023-10-15T16:26:07.864Z,98615.34
2023-10-15T16:28:34.446Z,98620.44
2023-10-15T16:31:02.432Z,98627.25
2023-10-15T16:33:29.112Z,98630.75
2023-10-15T16:35:55.603Z,98637.66
2023-10-15T16:38:22.111Z,98641.31
2023-10-15T16:40:48.688Z,98639.72
2023-10-15T16:43:15.748Z,98657.75
2023-10-15T16:45:42.410Z,98659.53
2023-10-15T16:48:09.565Z,98673.44
2023-10-15T16:50:38.384Z,98675.25
2023-10-15T16:53:12.006Z,98675.31
2023-10-15T16:55:39.728Z,98683.06
2023-10-15T16:58:06.439Z,98679.69
2023-10-15T17:00:35.023Z,98683.16
2023-10-15T17:03:02.362Z,98686.72
2023-10-15T17:05:30.091Z,98688.56
2023-10-15T17:07:56.960Z,98685.97
2023-10-15T17:10:23.474Z,98689.44
2023-10-15T17:12:49.918Z,98697.22
2023-10-15T17:15:16.464Z,98693.00
2023-10-15T17:17:43.487Z,98697.34
2023-10-15T17:20:11.584Z,98704.25
2023-10-15T17:22:38.308Z,98704.31
2023-10-15T17:25:05.637Z,98715.34
2023-10-15T17:27:34.056Z,98716.22
2023-10-15T17:30:17.711Z,98718.06
2023-10-15T17:32:44.775Z,98722.47
2023-10-15T17:35:12.780Z,98724.19
2023-10-15T17:37:40.173Z,98732.06
2023-10-15T17:40:07.924Z,98728.72
2023-10-15T17:42:37.163Z,98732.22
2023-10-15T17:45:04.372Z,98742.63
2023-10-15T17:47:30.917Z,98741.00
2023-10-15T17:49:57.420Z,98744.59
2023-10-15T17:52:23.837Z,98748.06
2023-10-15T17:54:50.301Z,98749.88
2023-10-15T17:57:17.722Z,98746.50
2023-10-15T17:59:44.361Z,98748.31
2023-10-15T18:02:10.829Z,98753.41
2023-10-15T18:04:37.639Z,98755.94
2023-10-15T18:07:04.148Z,98754.25
2023-10-15T18:09:35.202Z,98762.00
2023-10-15T18:12:02.648Z,98773.13
2023-10-15T18:14:29.981Z,98767.94
2023-10-15T18:16:57.114Z,98779.09
2023-10-15T18:19:23.858Z,98791.00
2023-10-15T18:21:50.447Z,98792.75
2023-10-15T18:24:17.060Z,98790.19
2023-10-15T18:26:44.176Z,98793.56
2023-10-15T18:29:10.667Z,98791.91
2023-10-15T18:31:37.185Z,98794.44
2023-10-15T18:34:03.943Z,98789.41
2023-10-15T18:36:30.553Z,98796.19
2023-10-15T18:38:57.278Z,98797.13
2023-10-15T18:41:23.844Z,98797.16
2023-10-15T18:43:50.459Z,98804.06
2023-10-15T18:46:17.143Z,98803.28
2023-10-15T18:48:43.831Z,98805.84
2023-10-15T18:51:28.201Z,98809.28
2023-10-15T18:53:58.778Z,98817.03
2023-10-15T18:56:25.440Z,98817.06
2023-10-15T18:58:52.843Z,98818.81
2023-10-15T19:01:22.841Z,98822.31
2023-10-15T19:03:49.738Z,98822.31
2023-10-15T19:06:16.366Z,98830.00
2023-10-15T19:08:42.852Z,98828.34
2023-10-15T19:11:14.531Z,98819.81
2023-10-15T19:13:44.358Z,98827.53
2023-10-15T19:16:10.867Z,98831.81
2023-10-15T19:18:43.201Z,98836.13
2023-10-15T19:21:09.838Z,98837.00
2023-10-15T19:23:36.534Z,98847.22
2023-10-15T19:26:07.372Z,98848.09
2023-10-15T19:28:35.322Z,98843.00
2023-10-15T19:31:03.037Z,98850.66
2023-10-15T19:33:32.988Z,98856.63
2023-10-15T19:36:01.331Z,98852.38
2023-10-15T19:38:28.722Z,98853.22
2023-10-15T19:40:55.785Z,98854.94
2023-10-15T19:43:22.872Z,98860.91
2023-10-15T19:45:50.152Z,98853.19
2023-10-15T19:48:17.968Z,98861.69
2023-10-15T19:50:44.699Z,98859.16
2023-10-15T19:53:12.252Z,98866.81
2023-10-15T19:55:39.075Z,98861.69
2023-10-15T19:58:06.779Z,98869.34
2023-10-15T20:00:35.902Z,98877.88
2023-10-15T20:03:02.994Z,98880.41
2023-10-15T20:05:30.306Z,98876.94
2023-10-15T20:07:56.906Z,98888.00
2023-10-15T20:10:23.538Z,98887.16
2023-10-15T20:12:52.782Z,98886.31
2023-10-15T20:15:20.590Z,98883.69
2023-10-15T20:17:48.117Z,98887.97
2023-10-15T20:20:17.964Z,98887.06
2023-10-15T20:22:46.752Z,98896.41
2023-10-15T20:25:13.271Z,98889.56
2023-10-15T20:27:41.132Z,98896.28
2023-10-15T20:30:13.807Z,98894.53
2023-10-15T20:35:11.480Z,98895.34
2023-10-15T20:37:40.713Z,98890.25
2023-10-15T20:40:12.450Z,98894.47
2023-10-15T20:42:39.653Z,98891.03
2023-10-15T20:45:08.517Z,98891.00
2023-10-15T20:47:35.630Z,98886.75
2023-10-15T20:50:03.188Z,98895.19
2023-10-15T20:52:29.707Z,98890.13
2023-10-15T20:54:56.265Z,98896.00
2023-10-15T20:57:22.758Z,98889.19
2023-10-15T20:59:49.532Z,98900.22
2023-10-15T21:02:16.082Z,98901.84
2023-10-15T21:04:44.799Z,98908.63
2023-10-15T21:07:11.276Z,98914.53
2023-10-15T21:09:37.760Z,98915.28
2023-10-15T21:12:05.429Z,98910.16
2023-10-15T21:14:32.117Z,98914.41
2023-10-15T21:16:58.583Z,98918.72
2023-10-15T21:19:25.410Z,98919.63
2023-10-15T21:21:51.934Z,98923.81
2023-10-15T21:24:18.489Z,98926.25
2023-10-15T21:26:45.030Z,98921.13
2023-10-15T21:29:12.484Z,98923.63
2023-10-15T21:31:39.027Z,98919.34
2023-10-15T21:34:05.527Z,98916.72
2023-10-15T21:36:32.042Z,98915.81
2023-10-15T21:38:58.596Z,98918.44
2023-10-15T21:41:26.368Z,98915.00
2023-10-15T21:43:52.891Z,98927.66
2023-10-15T21:46:19.616Z,98921.63
2023-10-15T21:48:48.293Z,98922.50
2023-10-15T21:51:14.966Z,98919.91
2023-10-15T21:53:41.465Z,98919.84
2023-10-15T21:56:09.475Z,98926.63
2023-10-15T21:58:36.146Z,98924.03
2023-10-15T22:01:02.647Z,98931.66
2023-10-15T22:03:30.085Z,98937.47
2023-10-15T22:05:56.601Z,98937.41
2023-10-15T22:08:26.424Z,98934.84
2023-10-15T22:10:53.419Z,98924.59
2023-10-15T22:13:19.836Z,98927.19
2023-10-15T22:15:48.860Z,98932.31
2023-10-15T22:18:16.546Z,98929.75
2023-10-15T22:20:47.961Z,98930.59
2023-10-15T22:23:18.607Z,98934.88
2023-10-15T22:25:48.075Z,98934.69
2023-10-15T22:28:18.044Z,98933.06
2023-10-15T22:30:48.720Z,98926.28
2023-10-15T22:33:15.883Z,98927.94
2023-10-15T22:35:45.056Z,98922.06
2023-10-15T22:38:18.196Z,98917.84
2023-10-15T22:40:45.290Z,98919.38
2023-10-15T22:43:12.331Z,98927.78
2023-10-15T22:45:38.800Z,98924.31
2023-10-15T22:48:05.863Z,98928.47
2023-10-15T22:50:35.257Z,98921.63
2023-10-15T22:53:01.823Z,98917.38
2023-10-15T22:55:28.459Z,98917.28
2023-10-15T22:57:54.974Z,98923.34
2023-10-15T23:00:24.197Z,98922.50
2023-10-15T23:02:52.919Z,98920.72
2023-10-15T23:05:22.989Z,98925.78
2023-10-15T23:07:50.547Z,98923.25
2023-10-15T23:10:17.014Z,98914.69
2023-10-15T23:12:46.685Z,98917.22
2023-10-15T23:15:17.197Z,98920.41
2023-10-15T23:17:45.173Z,98924.59
2023-10-15T23:20:24.897Z,98925.34
2023-10-15T23:22:53.003Z,98920.25
2023-10-15T23:25:20.597Z,98919.47
2023-10-15T23:27:49.426Z,98916.06
2023-10-15T23:30:16.906Z,98919.56
2023-10-15T23:32:48.905Z,98919.50
2023-10-15T23:35:15.367Z,98920.34
2023-10-15T23:37:41.883Z,98919.41
2023-10-15T23:40:14.297Z,98912.72
2023-10-15T23:42:44.035Z,98915.22
2023-10-15T23:45:12.648Z,98917.66
2023-10-15T23:47:42.342Z,98916.81
2023-10-15T23:50:16.396Z,98921.84
2023-10-15T23:52:44.907Z,98909.91
2023-10-15T23:55:17.075Z,98914.97
2023-10-15T23:57:50.802Z,98914.16
